This is the latest recevied weather packets stored in our database for station/object GW1482. If no packets are shown the sender has not sent any weather packets the latest 10 day(s).
| Time | Temp. | Humidity | Pressure | Rain* | Wind** | Luminosity | Snow |
|---|---|---|---|---|---|---|---|
| 1778056766 | 15° C | 79% | 995.5 hPa | 0.25 mm | - | - | - |
| 1778056417 | 15° C | 80% | 995.5 hPa | 0 mm | - | - | - |
| 1778052789 | 17.22° C | 57% | 995.5 hPa | 0 mm | - | - | - |
| 1778052103 | 17.78° C | 58% | 995.2 hPa | 0 mm | - | - | - |
| 1778050278 | 17.78° C | 57% | 995.2 hPa | 0 mm | - | - | - |
| 1778048110 | 17.78° C | 54% | 995.5 hPa | 0 mm | - | - | - |
| 1778045952 | 18.33° C | 54% | 996.2 hPa | 0 mm | - | - | - |
| 1778040229 | 18.33° C | 51% | 996.6 hPa | 0 mm | - | - | - |
| 1778038035 | 18.89° C | 50% | 996.6 hPa | 0 mm | - | - | - |
| 1778037350 | 18.33° C | 51% | 996.9 hPa | 0 mm | - | - | - |
| 1778036267 | 18.89° C | 50% | 996.6 hPa | 0 mm | - | - | - |
| 1778035889 | 18.33° C | 50% | 996.6 hPa | 0 mm | - | - | - |
| 1778032311 | 17.22° C | 52% | 997.6 hPa | 0 mm | - | - | - |
| 1778024727 | 20° C | 44% | 996.9 hPa | 0 mm | - | - | - |
| 1778019674 | 22.22° C | 35% | 996.6 hPa | 0 mm | - | - | - |
| 1778018261 | 21.67° C | 34% | 997.6 hPa | 0 mm | - | - | - |
| 1778017909 | 22.22° C | 33% | 997.2 hPa | 0 mm | - | - | - |
| 1778017181 | 21.67° C | 35% | 997.6 hPa | 0 mm | - | - | - |
| 1778016462 | 22.22° C | 36% | 997.2 hPa | 0 mm | - | - | - |
| 1778011780 | 22.78° C | 37% | 997.6 hPa | 0 mm | - | - | - |
| 1778008172 | 22.22° C | 39% | 997.9 hPa | 0 mm | - | - | - |
| 1778007816 | 22.22° C | 39% | 997.9 hPa | 0 mm | - | - | - |
| 1778003485 | 21.67° C | 40% | 998.9 hPa | 0 mm | - | - | - |
| 1778003125 | 21.67° C | 40% | 998.6 hPa | 0 mm | - | - | - |
| 1778000979 | 21.11° C | 45% | 999.3 hPa | 0 mm | - | - | - |
* Rain since midnight (hover to see other rain measurements)
** Current wind speed in m/s (hover to see current wind gust speed)